Time;durP1;ratioP1;P1;durP2;ratioP2;P2;SDS_P1;SDS_P2;PMS_P1;PMS_P2;Temp;Humidity;BMP_temperature;BMP_pressure;BME280_temperature;BME280_humidity;BME280_pressure;Samples;Min_cycle;Max_cycle;Signal;HPM_P1;HPM_P2
2022/02/16 00:00:11;;;;;;;;;;;;;;;14.57;60.08;99890.31;1014167;29;2139;-69
2022/02/16 00:01:01;;;;;;;;;;;;;;;14.58;60.49;99881.28;1018404;29;814;-68
2022/02/16 00:01:52;;;;;;;;;;;;;;;14.59;60.28;99887.50;1017743;29;1015;-69
2022/02/16 00:02:42;;;;;;;;;;;;;;;14.59;60.41;99892.84;1017987;29;735;-69
2022/02/16 00:03:32;;;;;;;;;;;;;;;14.58;60.80;99885.78;1018141;29;634;-69
2022/02/16 00:04:23;;;;;;;;;;;;;;;14.58;59.95;99889.31;1017708;29;814;-69
2022/02/16 00:05:15;;;;;;;;;;;;;;;14.58;60.77;99883.13;1014267;29;785;-68
2022/02/16 00:06:05;;;;;;;;;;;;;;;14.59;60.27;99890.16;1016355;29;761;-68
2022/02/16 00:06:55;;;;;;;;;;;;;;;14.59;60.64;99882.97;1018148;29;709;-69
2022/02/16 00:07:47;;;;;;;;;;;;;;;14.60;60.64;99894.53;1017357;29;781;-68
2022/02/16 00:08:38;;;;;;;;;;;;;;;14.59;60.70;99887.50;1017339;29;894;-69
2022/02/16 00:09:28;;;;;;;;;;;;;;;14.59;60.80;99884.81;1018577;29;808;-69
2022/02/16 00:10:19;;;;;;;;;;;;;;;14.58;60.20;99875.91;1018165;29;789;-69
2022/02/16 00:11:09;;;;;;;;;;;;;;;14.57;60.72;99882.28;1018074;29;662;-68
2022/02/16 00:12:03;;;;;;;;;;;;;;;14.58;60.06;99888.47;1017625;29;735;-66
2022/02/16 00:12:53;;;;;;;;;;;;;;;14.56;60.15;99874.38;1017325;29;1884;-67
2022/02/16 00:13:44;;;;;;;;;;;;;;;14.56;60.05;99871.69;1017704;29;670;-64
2022/02/16 00:14:34;;;;;;;;;;;;;;;14.57;60.52;99873.38;1017755;29;738;-63
2022/02/16 00:15:25;;;;;;;;;;;;;;;14.56;60.37;99879.72;1017672;29;956;-64
2022/02/16 00:16:15;;;;;;;;;;;;;;;14.56;60.79;99875.22;1018668;29;687;-63
2022/02/16 00:17:06;;;;;;;;;;;;;;;14.56;60.78;99869.00;1017563;29;976;-64
2022/02/16 00:17:56;;;;;;;;;;;;;;;14.55;60.86;99873.53;1017635;29;776;-64
2022/02/16 00:18:47;;;;;;;;;;;;;;;14.57;60.15;99876.06;1017769;29;771;-64
2022/02/16 00:19:37;;;;;;;;;;;;;;;14.57;60.52;99862.66;1017602;29;775;-64
2022/02/16 00:20:27;;;;;;;;;;;;;;;14.56;61.22;99869.84;1019278;29;762;-64
2022/02/16 00:21:18;;;;;;;;;;;;;;;14.56;60.35;99861.81;1017694;29;796;-64
2022/02/16 00:22:08;;;;;;;;;;;;;;;14.57;60.83;99868.03;1017523;29;713;-64
2022/02/16 00:22:59;;;;;;;;;;;;;;;14.57;60.57;99862.66;1017681;29;749;-64
2022/02/16 00:23:49;;;;;;;;;;;;;;;14.56;60.71;99855.59;1017556;29;968;-64
2022/02/16 00:24:40;;;;;;;;;;;;;;;14.57;60.62;99857.28;1018163;29;811;-64
2022/02/16 00:25:30;;;;;;;;;;;;;;;14.56;60.23;99850.25;1018104;29;783;-64
2022/02/16 00:26:20;;;;;;;;;;;;;;;14.53;60.40;99843.34;1018001;29;720;-64
2022/02/16 00:27:11;;;;;;;;;;;;;;;14.55;60.86;99853.91;1017643;29;843;-64
2022/02/16 00:28:01;;;;;;;;;;;;;;;14.53;60.01;99845.16;1017290;29;1746;-63
2022/02/16 00:28:52;;;;;;;;;;;;;;;14.54;60.25;99842.34;1016327;29;1013;-64
2022/02/16 00:29:42;;;;;;;;;;;;;;;14.53;60.27;99845.16;1016495;29;943;-64
2022/02/16 00:30:32;;;;;;;;;;;;;;;14.55;60.85;99841.34;1013892;29;679;-65
2022/02/16 00:31:23;;;;;;;;;;;;;;;14.55;60.32;99838.66;1014264;29;808;-64
2022/02/16 00:32:14;;;;;;;;;;;;;;;14.55;60.25;99837.84;1018009;29;712;-65
2022/02/16 00:33:04;;;;;;;;;;;;;;;14.54;60.26;99836.13;1016746;29;829;-69
2022/02/16 00:33:55;;;;;;;;;;;;;;;14.53;60.84;99832.63;1016952;29;660;-70
2022/02/16 00:34:45;;;;;;;;;;;;;;;14.54;60.38;99830.78;1017348;29;694;-68
2022/02/16 00:35:36;;;;;;;;;;;;;;;14.53;60.89;99826.41;1016321;29;732;-69
2022/02/16 00:36:27;;;;;;;;;;;;;;;14.55;60.93;99827.09;1017037;29;679;-70
2022/02/16 00:37:17;;;;;;;;;;;;;;;14.55;60.53;99824.44;1012788;29;747;-72
2022/02/16 00:38:07;;;;;;;;;;;;;;;14.53;60.99;99821.88;1016565;29;706;-69
2022/02/16 00:38:58;;;;;;;;;;;;;;;14.53;60.52;99823.72;1017434;29;947;-70
2022/02/16 00:39:48;;;;;;;;;;;;;;;14.53;60.38;99824.56;1016138;29;881;-69
2022/02/16 00:40:39;;;;;;;;;;;;;;;14.53;61.15;99824.56;1017516;29;699;-68
2022/02/16 00:41:30;;;;;;;;;;;;;;;14.54;61.11;99820.06;1017560;29;775;-70
2022/02/16 00:42:20;;;;;;;;;;;;;;;14.54;60.39;99822.72;1017763;29;1873;-70
2022/02/16 00:43:11;;;;;;;;;;;;;;;14.53;60.76;99821.88;1014489;29;710;-70
2022/02/16 00:44:01;;;;;;;;;;;;;;;14.55;60.57;99816.38;1013597;29;772;-71
2022/02/16 00:44:52;;;;;;;;;;;;;;;14.53;59.91;99813.84;1014067;29;794;-70
2022/02/16 00:45:42;;;;;;;;;;;;;;;14.52;60.97;99820.19;1013573;29;803;-70
2022/02/16 00:46:32;;;;;;;;;;;;;;;14.54;60.69;99814.69;1013508;29;706;-70
2022/02/16 00:47:23;;;;;;;;;;;;;;;14.52;60.88;99816.69;1013648;29;771;-71
2022/02/16 00:48:14;;;;;;;;;;;;;;;14.53;61.07;99813.00;1013916;29;845;-70
2022/02/16 00:49:05;;;;;;;;;;;;;;;14.52;60.08;99803.28;1014110;29;738;-70
2022/02/16 00:49:55;;;;;;;;;;;;;;;14.52;60.53;99811.31;1013503;29;1891;-70
2022/02/16 00:50:45;;;;;;;;;;;;;;;14.53;60.11;99810.31;1013469;29;698;-70
2022/02/16 00:51:36;;;;;;;;;;;;;;;14.52;60.08;99809.47;1013595;29;687;-70
2022/02/16 00:52:26;;;;;;;;;;;;;;;14.51;60.46;99801.63;1013238;29;842;-71
2022/02/16 00:53:17;;;;;;;;;;;;;;;14.52;60.53;99806.78;1013597;29;710;-73
2022/02/16 00:54:07;;;;;;;;;;;;;;;14.51;60.85;99804.28;1013438;29;949;-73
2022/02/16 00:54:58;;;;;;;;;;;;;;;14.52;60.67;99795.22;1013961;29;764;-72
2022/02/16 00:55:48;;;;;;;;;;;;;;;14.52;60.35;99797.91;1013625;29;874;-71
2022/02/16 00:56:40;;;;;;;;;;;;;;;14.52;60.92;99795.22;1013428;29;843;-72
2022/02/16 00:57:30;;;;;;;;;;;;;;;14.51;60.64;99789.03;1016375;29;1802;-72
2022/02/16 00:58:21;;;;;;;;;;;;;;;14.52;60.77;99790.72;1016840;29;739;-72
2022/02/16 00:59:13;;;;;;;;;;;;;;;14.51;60.59;99780.97;1018575;29;783;-69
2022/02/16 01:00:03;;;;;;;;;;;;;;;14.51;60.58;99780.16;1018023;29;760;-69
2022/02/16 01:00:54;;;;;;;;;;;;;;;14.50;60.60;99773.13;1017319;29;872;-68
2022/02/16 01:01:44;;;;;;;;;;;;;;;14.49;60.89;99777.63;1017487;29;772;-69
2022/02/16 01:02:34;;;;;;;;;;;;;;;14.49;60.79;99768.75;1019057;29;708;-69
2022/02/16 01:03:25;;;;;;;;;;;;;;;14.49;60.62;99774.09;1017373;29;1120;-69
2022/02/16 01:04:15;;;;;;;;;;;;;;;14.48;60.65;99772.41;1017319;29;751;-69
2022/02/16 01:05:06;;;;;;;;;;;;;;;14.48;60.60;99767.06;1016874;29;673;-69
2022/02/16 01:05:56;;;;;;;;;;;;;;;14.49;60.91;99764.22;1016535;29;767;-69
2022/02/16 01:06:46;;;;;;;;;;;;;;;14.50;60.60;99770.44;1018562;29;771;-69
2022/02/16 01:07:37;;;;;;;;;;;;;;;14.49;61.13;99768.75;1017535;29;670;-69
2022/02/16 01:08:29;;;;;;;;;;;;;;;14.50;60.80;99759.72;1018572;29;741;-69
2022/02/16 01:09:19;;;;;;;;;;;;;;;14.50;61.30;99770.44;1016876;29;805;-69
2022/02/16 01:10:09;;;;;;;;;;;;;;;14.49;60.47;99756.19;1017228;29;1910;-68
2022/02/16 01:11:00;;;;;;;;;;;;;;;14.49;60.84;99763.38;1016283;29;780;-67
2022/02/16 01:11:50;;;;;;;;;;;;;;;14.49;60.90;99758.03;1016874;29;2073;-67
2022/02/16 01:12:41;;;;;;;;;;;;;;;14.50;61.19;99749.84;1017587;29;762;-67
2022/02/16 01:13:32;;;;;;;;;;;;;;;14.50;61.19;99751.66;1017367;29;781;-68
2022/02/16 01:14:23;;;;;;;;;;;;;;;14.50;60.61;99754.34;1018333;29;766;-68
2022/02/16 01:15:13;;;;;;;;;;;;;;;14.49;61.02;99750.81;1014494;29;847;-68
2022/02/16 01:16:04;;;;;;;;;;;;;;;14.49;60.77;99753.50;1016042;29;808;-68
2022/02/16 01:16:54;;;;;;;;;;;;;;;14.50;61.07;99749.84;1016926;29;706;-68
2022/02/16 01:17:45;;;;;;;;;;;;;;;14.50;60.83;99751.66;1016534;29;796;-68
2022/02/16 01:18:35;;;;;;;;;;;;;;;14.50;60.92;99754.34;1016953;29;826;-68
2022/02/16 01:19:25;;;;;;;;;;;;;;;14.49;61.47;99755.34;1014197;29;782;-68
2022/02/16 01:20:16;;;;;;;;;;;;;;;14.49;60.30;99752.66;1014741;29;787;-68
2022/02/16 01:21:07;;;;;;;;;;;;;;;14.49;60.81;99755.34;1018496;29;969;-68
2022/02/16 01:21:58;;;;;;;;;;;;;;;14.50;61.41;99759.72;1019001;29;748;-70
2022/02/16 01:22:48;;;;;;;;;;;;;;;14.49;61.00;99758.88;1017100;29;1153;-69
2022/02/16 01:23:40;;;;;;;;;;;;;;;14.49;61.30;99758.03;1016518;29;727;-69
2022/02/16 01:24:31;;;;;;;;;;;;;;;14.47;60.85;99750.13;1019018;29;662;-69
2022/02/16 01:25:21;;;;;;;;;;;;;;;14.47;61.19;99760.84;1016798;29;767;-69
2022/02/16 01:26:12;;;;;;;;;;;;;;;14.47;61.29;99751.97;1016659;29;725;-69
2022/02/16 01:27:02;;;;;;;;;;;;;;;14.45;60.62;99752.13;1019120;29;760;-69
2022/02/16 01:27:53;;;;;;;;;;;;;;;14.46;60.98;99750.28;1016670;29;840;-68
2022/02/16 01:28:43;;;;;;;;;;;;;;;14.47;60.89;99751.97;1016300;29;1901;-69
2022/02/16 01:29:34;;;;;;;;;;;;;;;14.46;61.31;99736.88;1017235;29;690;-68
2022/02/16 01:30:24;;;;;;;;;;;;;;;14.46;60.86;99736.88;1014069;29;801;-68
2022/02/16 01:31:14;;;;;;;;;;;;;;;14.46;61.16;99736.88;1014846;29;714;-69
2022/02/16 01:32:05;;;;;;;;;;;;;;;14.45;60.85;99740.53;1018282;29;776;-69
2022/02/16 01:32:55;;;;;;;;;;;;;;;14.45;60.88;99732.50;1016950;29;707;-69
2022/02/16 01:33:46;;;;;;;;;;;;;;;14.45;60.74;99728.00;1016779;29;744;-69
2022/02/16 01:34:36;;;;;;;;;;;;;;;14.44;60.61;99728.97;1016852;29;745;-69
2022/02/16 01:35:26;;;;;;;;;;;;;;;14.45;60.79;99719.09;1016638;29;779;-69
2022/02/16 01:36:17;;;;;;;;;;;;;;;14.43;61.26;99721.94;1013311;29;919;-69
2022/02/16 01:37:07;;;;;;;;;;;;;;;14.44;60.61;99714.75;1016370;29;950;-70
2022/02/16 01:37:58;;;;;;;;;;;;;;;14.44;60.71;99717.41;1016593;29;772;-69
2022/02/16 01:38:48;;;;;;;;;;;;;;;14.43;61.35;99710.38;1016852;29;712;-69
2022/02/16 01:39:38;;;;;;;;;;;;;;;14.44;61.39;99709.38;1014183;29;719;-72
2022/02/16 01:40:29;;;;;;;;;;;;;;;14.45;60.85;99708.38;1014631;29;774;-71
2022/02/16 01:41:19;;;;;;;;;;;;;;;14.46;61.57;99704.72;1018208;29;698;-72
2022/02/16 01:42:10;;;;;;;;;;;;;;;14.45;60.55;99703.88;1016628;29;710;-72
2022/02/16 01:43:00;;;;;;;;;;;;;;;14.44;60.80;99701.34;1016848;29;728;-70
2022/02/16 01:43:50;;;;;;;;;;;;;;;14.44;60.91;99696.81;1015945;29;1853;-70
2022/02/16 01:44:41;;;;;;;;;;;;;;;14.45;60.99;99697.66;1017160;29;986;-70
2022/02/16 01:45:32;;;;;;;;;;;;;;;14.45;61.33;99694.97;1016637;29;783;-69
2022/02/16 01:46:22;;;;;;;;;;;;;;;14.45;60.70;99695.81;1012996;29;748;-70
2022/02/16 01:47:13;;;;;;;;;;;;;;;14.45;61.48;99692.31;1014644;29;763;-71
2022/02/16 01:48:03;;;;;;;;;;;;;;;14.45;60.87;99686.94;1018380;29;747;-73
2022/02/16 01:48:54;;;;;;;;;;;;;;;14.45;61.55;99689.63;1016526;29;800;-72
2022/02/16 01:49:44;;;;;;;;;;;;;;;14.45;60.92;99689.63;1016472;29;908;-72
2022/02/16 01:50:36;;;;;;;;;;;;;;;14.46;61.01;99691.31;1016527;29;756;-66
2022/02/16 01:51:27;;;;;;;;;;;;;;;14.46;61.00;99680.59;1017814;29;732;-68
2022/02/16 01:52:17;;;;;;;;;;;;;;;14.46;61.09;99678.75;1016818;29;725;-68
2022/02/16 01:53:08;;;;;;;;;;;;;;;14.45;61.75;99677.06;1016712;29;791;-68
2022/02/16 01:53:58;;;;;;;;;;;;;;;14.46;60.86;99677.91;1012882;29;707;-69
2022/02/16 01:54:48;;;;;;;;;;;;;;;14.45;61.47;99677.06;1013811;29;768;-69
2022/02/16 01:55:39;;;;;;;;;;;;;;;14.45;60.90;99676.22;1013926;29;689;-68
2022/02/16 01:56:29;;;;;;;;;;;;;;;14.44;61.01;99672.69;1009130;29;719;-70
2022/02/16 01:57:20;;;;;;;;;;;;;;;14.45;61.36;99676.22;1009662;29;713;-69
2022/02/16 01:58:10;;;;;;;;;;;;;;;14.43;60.85;99671.00;1010704;29;1893;-69
2022/02/16 01:59:01;;;;;;;;;;;;;;;14.43;61.22;99673.69;1010948;29;1434;-69
2022/02/16 01:59:51;;;;;;;;;;;;;;;14.45;61.48;99665.50;1013771;29;738;-70
2022/02/16 02:00:42;;;;;;;;;;;;;;;14.45;61.33;99662.81;1009001;29;682;-69
2022/02/16 02:01:32;;;;;;;;;;;;;;;14.45;61.60;99671.69;1010083;29;746;-70
2022/02/16 02:02:22;;;;;;;;;;;;;;;14.44;61.03;99661.97;1012761;29;706;-70
2022/02/16 02:03:13;;;;;;;;;;;;;;;14.45;61.65;99670.84;1013613;29;748;-70
2022/02/16 02:04:03;;;;;;;;;;;;;;;14.44;61.18;99661.97;1010067;29;705;-70
2022/02/16 02:04:54;;;;;;;;;;;;;;;14.44;61.54;99653.09;1010237;29;887;-71
2022/02/16 02:05:45;;;;;;;;;;;;;;;14.43;61.44;99667.47;1013767;29;724;-70
2022/02/16 02:06:35;;;;;;;;;;;;;;;14.43;61.07;99659.44;1013297;29;712;-69
2022/02/16 02:07:26;;;;;;;;;;;;;;;14.43;61.11;99660.28;1013252;29;728;-69
2022/02/16 02:08:16;;;;;;;;;;;;;;;14.43;60.98;99651.41;1014540;29;728;-69
2022/02/16 02:09:06;;;;;;;;;;;;;;;14.42;61.36;99647.88;1013651;29;693;-69
2022/02/16 02:09:57;;;;;;;;;;;;;;;14.43;60.90;99646.03;1013803;29;1988;-68
2022/02/16 02:10:47;;;;;;;;;;;;;;;14.43;61.63;99646.03;1013943;29;715;-68
2022/02/16 02:11:38;;;;;;;;;;;;;;;14.43;61.00;99640.69;1013745;29;921;-68
2022/02/16 02:12:29;;;;;;;;;;;;;;;14.43;61.70;99640.69;1013812;29;870;-68
2022/02/16 02:13:19;;;;;;;;;;;;;;;14.43;61.01;99640.69;1013467;29;2146;-68
2022/02/16 02:14:09;;;;;;;;;;;;;;;14.42;61.50;99644.34;1013027;29;1089;-68
2022/02/16 02:15:00;;;;;;;;;;;;;;;14.42;61.94;99636.31;1013044;29;1890;-66
2022/02/16 02:15:50;;;;;;;;;;;;;;;14.43;61.35;99641.53;1014101;29;850;-67
2022/02/16 02:16:41;;;;;;;;;;;;;;;14.43;61.46;99635.31;1013815;29;878;-69
2022/02/16 02:17:31;;;;;;;;;;;;;;;14.42;60.90;99633.63;1013783;29;804;-69
2022/02/16 02:18:22;;;;;;;;;;;;;;;14.41;61.26;99638.16;1013777;29;781;-69
2022/02/16 02:19:12;;;;;;;;;;;;;;;14.42;61.13;99630.94;1013883;29;766;-69
2022/02/16 02:20:02;;;;;;;;;;;;;;;14.41;61.58;99632.78;1014309;29;765;-68
2022/02/16 02:20:53;;;;;;;;;;;;;;;14.42;61.01;99622.91;1013726;29;706;-69
2022/02/16 02:21:43;;;;;;;;;;;;;;;14.43;61.44;99630.81;1013860;29;730;-69
2022/02/16 02:22:34;;;;;;;;;;;;;;;14.43;61.46;99629.97;1013690;29;781;-68
2022/02/16 02:23:24;;;;;;;;;;;;;;;14.42;61.20;99625.59;1013673;29;651;-69
2022/02/16 02:24:15;;;;;;;;;;;;;;;14.42;61.45;99620.22;1013691;29;831;-69
2022/02/16 02:25:05;;;;;;;;;;;;;;;14.43;61.94;99624.59;1013642;29;791;-68
2022/02/16 02:25:56;;;;;;;;;;;;;;;14.42;61.26;99623.75;1013701;29;789;-69
2022/02/16 02:26:46;;;;;;;;;;;;;;;14.42;61.12;99614.88;1013815;29;715;-69
2022/02/16 02:27:36;;;;;;;;;;;;;;;14.42;61.08;99613.03;1013490;29;1867;-69
2022/02/16 02:28:27;;;;;;;;;;;;;;;14.42;61.54;99613.03;1013602;29;732;-69
2022/02/16 02:29:17;;;;;;;;;;;;;;;14.42;61.12;99613.03;1013630;29;1220;-65
2022/02/16 02:30:08;;;;;;;;;;;;;;;14.41;61.15;99607.81;1013545;29;1978;-66
2022/02/16 02:30:59;;;;;;;;;;;;;;;14.41;61.30;99605.16;1013778;29;757;-66
2022/02/16 02:31:50;;;;;;;;;;;;;;;14.42;61.49;99613.03;1013672;29;778;-66
2022/02/16 02:32:41;;;;;;;;;;;;;;;14.42;61.06;99612.19;1009029;29;883;-65
2022/02/16 02:33:31;;;;;;;;;;;;;;;14.43;61.28;99611.19;1009074;29;796;-66
2022/02/16 02:34:21;;;;;;;;;;;;;;;14.41;60.83;99602.47;1013662;29;752;-66
2022/02/16 02:35:12;;;;;;;;;;;;;;;14.40;61.22;99606.09;1013676;29;713;-66
2022/02/16 02:36:02;;;;;;;;;;;;;;;14.39;61.09;99613.31;1013757;29;719;-66
2022/02/16 02:36:53;;;;;;;;;;;;;;;14.38;61.05;99608.09;1013605;29;773;-65
2022/02/16 02:37:43;;;;;;;;;;;;;;;14.37;61.77;99601.03;1013682;29;796;-65
2022/02/16 02:38:34;;;;;;;;;;;;;;;14.37;61.04;99604.56;1013576;29;815;-66
2022/02/16 02:39:24;;;;;;;;;;;;;;;14.35;61.06;99598.53;1013636;29;709;-66
2022/02/16 02:40:15;;;;;;;;;;;;;;;14.38;61.22;99600.06;1010417;29;710;-66
2022/02/16 02:41:05;;;;;;;;;;;;;;;14.38;61.08;99606.25;1011295;29;770;-66
2022/02/16 02:41:56;;;;;;;;;;;;;;;14.38;61.39;99602.72;1013645;29;709;-66
2022/02/16 02:42:46;;;;;;;;;;;;;;;14.39;61.14;99599.06;1008874;29;1249;-66
2022/02/16 02:43:37;;;;;;;;;;;;;;;14.38;61.03;99600.91;1010038;29;679;-66
2022/02/16 02:44:27;;;;;;;;;;;;;;;14.39;61.87;99597.22;1013595;29;778;-66
2022/02/16 02:45:17;;;;;;;;;;;;;;;14.40;61.16;99595.38;1013631;29;738;-65
2022/02/16 02:46:08;;;;;;;;;;;;;;;14.39;61.48;99596.38;1013747;29;698;-65
2022/02/16 02:46:58;;;;;;;;;;;;;;;14.39;61.32;99596.38;1013574;29;746;-66
2022/02/16 02:47:49;;;;;;;;;;;;;;;14.39;61.09;99591.03;1013638;29;1016;-66
2022/02/16 02:48:39;;;;;;;;;;;;;;;14.38;61.48;99586.66;1013651;29;753;-67
2022/02/16 02:49:30;;;;;;;;;;;;;;;14.37;61.38;99593.00;1013607;29;704;-68
2022/02/16 02:50:20;;;;;;;;;;;;;;;14.37;61.57;99593.84;1013535;29;1891;-68
2022/02/16 02:51:11;;;;;;;;;;;;;;;14.36;61.33;99592.16;1013591;29;923;-68
2022/02/16 02:52:01;;;;;;;;;;;;;;;14.37;60.94;99587.66;1013804;29;696;-68
2022/02/16 02:52:51;;;;;;;;;;;;;;;14.36;61.53;99583.28;1013737;29;765;-69
2022/02/16 02:53:42;;;;;;;;;;;;;;;14.36;61.24;99580.59;1016078;29;1279;-68
2022/02/16 02:54:32;;;;;;;;;;;;;;;14.36;61.69;99580.59;1014123;29;710;-68
2022/02/16 02:55:23;;;;;;;;;;;;;;;14.37;61.62;99579.59;1020882;29;749;-68
2022/02/16 02:56:13;;;;;;;;;;;;;;;14.36;61.58;99570.72;1021496;29;724;-67
2022/02/16 02:57:04;;;;;;;;;;;;;;;14.37;61.06;99576.94;1021232;29;1902;-66
2022/02/16 02:57:54;;;;;;;;;;;;;;;14.37;61.51;99579.59;1020488;29;777;-66
2022/02/16 02:58:44;;;;;;;;;;;;;;;14.36;61.25;99569.88;1021509;29;768;-66
2022/02/16 02:59:35;;;;;;;;;;;;;;;14.37;61.40;99568.88;1021464;29;855;-66
2022/02/16 03:00:25;;;;;;;;;;;;;;;14.36;61.27;99562.69;1021453;29;841;-67
2022/02/16 03:01:16;;;;;;;;;;;;;;;14.36;61.28;99559.16;1021518;29;700;-67
2022/02/16 03:02:06;;;;;;;;;;;;;;;14.35;61.56;99561.00;1021489;29;720;-67
2022/02/16 03:02:57;;;;;;;;;;;;;;;14.36;61.07;99556.47;1021527;29;712;-67
2022/02/16 03:03:47;;;;;;;;;;;;;;;14.36;61.43;99557.31;1021711;29;720;-67
2022/02/16 03:04:37;;;;;;;;;;;;;;;14.36;60.96;99556.47;1021737;29;858;-69
2022/02/16 03:05:28;;;;;;;;;;;;;;;14.35;61.17;99546.75;1021671;29;693;-71
2022/02/16 03:06:18;;;;;;;;;;;;;;;14.35;61.19;99542.25;1021547;29;710;-71
2022/02/16 03:07:09;;;;;;;;;;;;;;;14.35;61.14;99546.75;1021452;29;777;-70
2022/02/16 03:07:59;;;;;;;;;;;;;;;14.35;61.67;99549.44;1021238;29;1937;-71
2022/02/16 03:08:49;;;;;;;;;;;;;;;14.35;61.55;99552.13;1020299;29;705;-71
2022/02/16 03:09:40;;;;;;;;;;;;;;;14.35;61.85;99552.13;1021503;29;715;-70
2022/02/16 03:10:31;;;;;;;;;;;;;;;14.36;61.05;99548.44;1020560;29;715;-70
2022/02/16 03:11:21;;;;;;;;;;;;;;;14.35;61.14;99552.13;1021824;29;738;-71
2022/02/16 03:12:11;;;;;;;;;;;;;;;14.34;61.91;99537.88;1021467;29;718;-69
2022/02/16 03:13:02;;;;;;;;;;;;;;;14.34;61.05;99535.19;1021401;29;784;-69
2022/02/16 03:13:52;;;;;;;;;;;;;;;14.33;61.15;99522.78;1021349;29;1081;-68
2022/02/16 03:14:43;;;;;;;;;;;;;;;14.31;61.89;99524.81;1020381;29;654;-69
2022/02/16 03:15:33;;;;;;;;;;;;;;;14.33;61.96;99524.66;1021533;29;707;-69
2022/02/16 03:16:24;;;;;;;;;;;;;;;14.33;61.22;99521.97;1021477;29;796;-68
2022/02/16 03:17:14;;;;;;;;;;;;;;;14.34;61.15;99520.94;1021505;29;711;-68
2022/02/16 03:18:05;;;;;;;;;;;;;;;14.33;60.72;99521.97;1021516;29;811;-69
2022/02/16 03:18:55;;;;;;;;;;;;;;;14.33;61.39;99521.97;1021455;29;763;-68
2022/02/16 03:19:45;;;;;;;;;;;;;;;14.32;61.25;99522.97;1021790;29;725;-68
2022/02/16 03:20:36;;;;;;;;;;;;;;;14.33;61.71;99524.66;1021584;29;854;-69
2022/02/16 03:21:26;;;;;;;;;;;;;;;14.31;61.59;99518.59;1021565;29;685;-69
2022/02/16 03:22:19;;;;;;;;;;;;;;;14.30;60.96;99524.97;1021245;29;1920;-68
2022/02/16 03:23:09;;;;;;;;;;;;;;;14.30;61.46;99528.50;1021581;29;774;-68
2022/02/16 03:24:00;;;;;;;;;;;;;;;14.30;61.39;99522.28;1021440;29;763;-69
2022/02/16 03:24:50;;;;;;;;;;;;;;;14.30;61.09;99516.94;1017514;29;899;-68
2022/02/16 03:25:41;;;;;;;;;;;;;;;14.30;61.24;99516.94;1016943;29;691;-68
2022/02/16 03:26:31;;;;;;;;;;;;;;;14.31;61.55;99515.94;1016995;29;932;-67
2022/02/16 03:27:21;;;;;;;;;;;;;;;14.30;61.53;99509.72;1017045;29;692;-68
2022/02/16 03:28:12;;;;;;;;;;;;;;;14.30;61.15;99506.22;1016912;29;661;-69
2022/02/16 03:29:02;;;;;;;;;;;;;;;14.30;61.17;99503.53;1016792;29;1094;-69
2022/02/16 03:29:53;;;;;;;;;;;;;;;14.30;61.52;99506.22;1017384;29;708;-67
2022/02/16 03:30:43;;;;;;;;;;;;;;;14.29;61.34;99494.66;1017516;29;845;-67
2022/02/16 03:31:33;;;;;;;;;;;;;;;14.28;61.54;99492.97;1017443;29;672;-66
2022/02/16 03:32:24;;;;;;;;;;;;;;;14.29;61.74;99496.47;1017031;29;740;-66
2022/02/16 03:33:14;;;;;;;;;;;;;;;14.29;62.05;99488.44;1016961;29;746;-66
2022/02/16 03:34:05;;;;;;;;;;;;;;;14.29;61.53;99489.28;1017578;29;746;-67
2022/02/16 03:34:55;;;;;;;;;;;;;;;14.28;61.50;99482.25;1016888;29;779;-67
2022/02/16 03:35:46;;;;;;;;;;;;;;;14.28;61.35;99476.03;1016924;29;756;-67
2022/02/16 03:36:36;;;;;;;;;;;;;;;14.29;61.10;99493.81;1017057;29;765;-67
2022/02/16 03:37:26;;;;;;;;;;;;;;;14.29;61.71;99483.09;1017066;29;764;-67
2022/02/16 03:38:17;;;;;;;;;;;;;;;14.28;61.13;99484.09;1016884;29;652;-67
2022/02/16 03:39:07;;;;;;;;;;;;;;;14.28;61.79;99473.38;1017989;29;766;-66
2022/02/16 03:39:58;;;;;;;;;;;;;;;14.29;61.49;99478.56;1016857;29;764;-66
2022/02/16 03:40:49;;;;;;;;;;;;;;;14.29;61.05;99464.31;1016960;29;779;-67
2022/02/16 03:41:39;;;;;;;;;;;;;;;14.28;61.63;99470.69;1016976;29;725;-67
2022/02/16 03:42:30;;;;;;;;;;;;;;;14.28;61.86;99460.81;1016905;29;689;-67
2022/02/16 03:43:20;;;;;;;;;;;;;;;14.29;61.17;99464.31;1016958;29;797;-67
2022/02/16 03:44:11;;;;;;;;;;;;;;;14.30;61.17;99460.66;1017123;29;1390;-67
2022/02/16 03:45:01;;;;;;;;;;;;;;;14.30;61.38;99463.34;1017236;29;694;-67
2022/02/16 03:45:51;;;;;;;;;;;;;;;14.29;61.63;99462.50;1017144;29;766;-67
2022/02/16 03:46:42;;;;;;;;;;;;;;;14.28;60.99;99457.28;1016919;29;770;-68
2022/02/16 03:47:32;;;;;;;;;;;;;;;14.28;61.28;99457.28;1017928;29;854;-68
2022/02/16 03:48:23;;;;;;;;;;;;;;;14.28;61.46;99449.25;1017953;29;766;-67
2022/02/16 03:49:13;;;;;;;;;;;;;;;14.27;62.04;99452.91;1017902;29;709;-68
2022/02/16 03:50:03;;;;;;;;;;;;;;;14.27;61.71;99447.56;1017529;29;1895;-68
2022/02/16 03:50:54;;;;;;;;;;;;;;;14.25;61.42;99443.19;1017685;29;717;-68
2022/02/16 03:51:44;;;;;;;;;;;;;;;14.24;61.36;99438.84;1017623;29;810;-68
2022/02/16 03:52:35;;;;;;;;;;;;;;;14.23;61.08;99445.19;1017645;29;710;-67
2022/02/16 03:53:25;;;;;;;;;;;;;;;14.24;61.28;99441.50;1017680;29;1898;-67
2022/02/16 03:54:16;;;;;;;;;;;;;;;14.24;61.66;99441.50;1018131;29;707;-67
2022/02/16 03:55:06;;;;;;;;;;;;;;;14.23;61.78;99434.47;1019273;28;685;-68
2022/02/16 03:55:57;;;;;;;;;;;;;;;14.23;61.44;99434.47;1019337;28;839;-67
2022/02/16 03:56:47;;;;;;;;;;;;;;;14.22;61.66;99440.81;1021690;28;1972;-67
2022/02/16 03:57:38;;;;;;;;;;;;;;;14.22;62.12;99435.47;1020922;29;700;-68
2022/02/16 03:58:28;;;;;;;;;;;;;;;14.23;61.46;99425.59;1022185;28;709;-67
2022/02/16 03:59:18;;;;;;;;;;;;;;;14.22;61.50;99430.09;1022132;29;721;-67
2022/02/16 04:00:09;;;;;;;;;;;;;;;14.21;62.05;99430.25;1022163;29;847;-67
2022/02/16 04:00:59;;;;;;;;;;;;;;;14.21;62.02;99433.78;1022225;29;698;-65
2022/02/16 04:01:50;;;;;;;;;;;;;;;14.20;61.49;99426.75;1022189;29;703;-66
2022/02/16 04:02:40;;;;;;;;;;;;;;;14.21;61.32;99417.72;1022073;29;768;-66
2022/02/16 04:03:32;;;;;;;;;;;;;;;14.21;61.37;99415.03;1020689;29;774;-66
2022/02/16 04:04:22;;;;;;;;;;;;;;;14.20;61.62;99418.72;1022180;29;845;-66
2022/02/16 04:05:13;;;;;;;;;;;;;;;14.19;61.19;99411.66;1019015;29;796;-66
2022/02/16 04:06:03;;;;;;;;;;;;;;;14.19;61.38;99409.00;1017960;29;816;-66
2022/02/16 04:06:54;;;;;;;;;;;;;;;14.19;61.88;99408.16;1022584;29;713;-65
2022/02/16 04:07:44;;;;;;;;;;;;;;;14.19;62.06;99413.50;1021921;29;800;-64
2022/02/16 04:08:35;;;;;;;;;;;;;;;14.19;61.14;99403.63;1018113;29;823;-64
2022/02/16 04:09:25;;;;;;;;;;;;;;;14.19;61.63;99409.00;1017527;29;712;-65
2022/02/16 04:10:15;;;;;;;;;;;;;;;14.20;61.41;99412.50;1017606;29;1910;-65
2022/02/16 04:11:06;;;;;;;;;;;;;;;14.20;61.62;99409.81;1017492;29;654;-64
2022/02/16 04:11:56;;;;;;;;;;;;;;;14.19;61.64;99409.00;1017594;29;678;-64
2022/02/16 04:12:47;;;;;;;;;;;;;;;14.19;61.27;99413.50;1018014;29;719;-64
2022/02/16 04:13:37;;;;;;;;;;;;;;;14.18;61.86;99407.31;1017604;29;734;-64
2022/02/16 04:14:28;;;;;;;;;;;;;;;14.18;61.57;99401.09;1018192;29;759;-64
2022/02/16 04:15:18;;;;;;;;;;;;;;;14.17;61.36;99408.31;1017531;29;686;-64
2022/02/16 04:16:08;;;;;;;;;;;;;;;14.17;61.42;99410.13;1012749;29;706;-64
2022/02/16 04:16:59;;;;;;;;;;;;;;;14.17;61.44;99400.25;1013760;29;1284;-64
2022/02/16 04:17:49;;;;;;;;;;;;;;;14.18;62.02;99401.09;1017624;29;694;-63
2022/02/16 04:18:40;;;;;;;;;;;;;;;14.15;61.87;99396.09;1017486;29;739;-63
2022/02/16 04:19:30;;;;;;;;;;;;;;;14.17;62.16;99394.06;1017551;29;697;-64
2022/02/16 04:20:21;;;;;;;;;;;;;;;14.16;61.80;99389.69;1017420;29;696;-64
2022/02/16 04:21:11;;;;;;;;;;;;;;;14.14;61.51;99387.22;1017577;29;868;-65
2022/02/16 04:22:02;;;;;;;;;;;;;;;14.17;61.50;99388.72;1018183;29;743;-64
2022/02/16 04:22:53;;;;;;;;;;;;;;;14.16;61.56;99384.34;1017470;29;714;-66
2022/02/16 04:23:43;;;;;;;;;;;;;;;14.16;61.87;99387.88;1018038;29;702;-64
2022/02/16 04:24:34;;;;;;;;;;;;;;;14.17;61.91;99378.81;1018074;29;702;-65
2022/02/16 04:25:24;;;;;;;;;;;;;;;14.17;61.55;99368.13;1018128;29;917;-65
2022/02/16 04:26:15;;;;;;;;;;;;;;;14.15;61.23;99378.16;1018071;29;712;-64
2022/02/16 04:27:05;;;;;;;;;;;;;;;14.15;61.82;99369.28;1018017;29;821;-64
2022/02/16 04:27:55;;;;;;;;;;;;;;;14.15;61.33;99371.97;1018008;29;686;-64
2022/02/16 04:28:46;;;;;;;;;;;;;;;14.13;61.97;99361.41;1018061;29;691;-64